createdAt,value
2023-02-14T00:00:59.482Z,101917.28
2023-02-14T00:03:26.576Z,101905.31
2023-02-14T00:05:53.379Z,101911.56
2023-02-14T00:08:20.149Z,101895.00
2023-02-14T00:10:47.046Z,101897.13
2023-02-14T00:13:16.494Z,101895.75
2023-02-14T00:15:43.292Z,101897.13
2023-02-14T00:18:11.267Z,101891.97
2023-02-14T00:20:37.980Z,101902.53
2023-02-14T00:23:04.804Z,101897.91
2023-02-14T00:25:33.448Z,101905.69
2023-02-14T00:28:00.236Z,101901.22
2023-02-14T00:30:28.537Z,101908.03
2023-02-14T00:32:55.290Z,101899.41
2023-02-14T00:35:22.108Z,101899.28
2023-02-14T00:37:48.963Z,101900.81
2023-02-14T00:40:16.525Z,101888.72
2023-02-14T00:42:43.298Z,101886.03
2023-02-14T00:45:10.298Z,101893.06
2023-02-14T00:47:37.022Z,101894.63
2023-02-14T00:50:05.174Z,101889.94
2023-02-14T00:52:32.400Z,101894.91
2023-02-14T00:54:59.684Z,101892.56
2023-02-14T00:57:26.388Z,101899.53
2023-02-14T00:59:53.227Z,101902.81
2023-02-14T01:02:20.897Z,101896.25
2023-02-14T01:04:47.813Z,101892.75
2023-02-14T01:07:14.573Z,101878.56
2023-02-14T01:09:42.229Z,101877.22
2023-02-14T01:12:08.997Z,101884.97
2023-02-14T01:14:35.759Z,101873.94
2023-02-14T01:17:02.557Z,101877.09
2023-02-14T01:19:29.447Z,101877.91
2023-02-14T01:21:56.481Z,101873.00
2023-02-14T01:24:23.353Z,101877.78
2023-02-14T01:26:50.227Z,101875.22
2023-02-14T01:29:17.174Z,101874.63
2023-02-14T01:31:45.237Z,101869.59
2023-02-14T01:34:13.023Z,101871.22
2023-02-14T01:36:40.399Z,101867.97
2023-02-14T01:39:14.938Z,101868.25
2023-02-14T01:41:44.308Z,101863.50
2023-02-14T01:44:17.017Z,101868.91
2023-02-14T01:46:47.300Z,101866.66
2023-02-14T01:49:30.096Z,101865.25
2023-02-14T01:52:08.329Z,101866.44
2023-02-14T01:54:38.854Z,101860.50
2023-02-14T01:57:10.210Z,101858.59
2023-02-14T01:59:46.355Z,101859.06
2023-02-14T02:02:13.384Z,101849.22
2023-02-14T02:04:44.924Z,101851.47
2023-02-14T02:07:19.133Z,101846.78
2023-02-14T02:09:51.479Z,101846.47
2023-02-14T02:12:18.267Z,101844.59
2023-02-14T02:14:45.902Z,101843.19
2023-02-14T02:17:21.656Z,101835.94
2023-02-14T02:20:00.571Z,101837.59
2023-02-14T02:23:14.942Z,101840.19
2023-02-14T02:26:20.404Z,101832.19
2023-02-14T02:29:13.157Z,101830.34
2023-02-14T02:31:51.559Z,101828.66
2023-02-14T02:34:21.053Z,101826.56
2023-02-14T02:36:55.099Z,101824.56
2023-02-14T02:39:38.594Z,101828.91
2023-02-14T02:42:23.786Z,101824.16
2023-02-14T02:44:50.817Z,101822.81
2023-02-14T02:47:46.865Z,101814.41
2023-02-14T02:50:52.266Z,101820.88
2023-02-14T02:53:40.759Z,101817.16
2023-02-14T02:56:49.754Z,101817.97
2023-02-14T02:59:34.892Z,101813.06
2023-02-14T03:02:15.948Z,101817.03
2023-02-14T03:04:55.437Z,101817.84
2023-02-14T03:07:36.595Z,101820.53
2023-02-14T03:10:24.289Z,101815.41
2023-02-14T03:13:12.504Z,101820.81
2023-02-14T03:15:57.347Z,101818.09
2023-02-14T03:19:16.339Z,101824.53
2023-02-14T03:22:20.428Z,101821.03
2023-02-14T03:25:08.801Z,101814.25
2023-02-14T03:28:09.477Z,101824.78
2023-02-14T03:30:52.331Z,101823.75
2023-02-14T03:33:36.727Z,101825.25
2023-02-14T03:36:23.574Z,101823.84
2023-02-14T03:39:00.867Z,101822.88
2023-02-14T03:41:34.026Z,101825.72
2023-02-14T03:44:07.377Z,101823.56
2023-02-14T03:46:37.183Z,101820.06
2023-02-14T03:49:08.817Z,101815.41
2023-02-14T03:51:36.169Z,101828.53
2023-02-14T03:54:06.764Z,101825.81
2023-02-14T03:56:48.143Z,101829.44
2023-02-14T03:59:20.382Z,101840.06
2023-02-14T04:01:56.841Z,101827.31
2023-02-14T04:04:27.755Z,101829.06
2023-02-14T04:06:55.000Z,101826.91
2023-02-14T04:09:21.812Z,101826.56
2023-02-14T04:11:50.536Z,101822.00
2023-02-14T04:14:18.198Z,101818.97
2023-02-14T04:17:03.638Z,101811.38
2023-02-14T04:19:30.461Z,101813.44
2023-02-14T04:21:57.442Z,101809.50
2023-02-14T04:24:24.287Z,101818.22
2023-02-14T04:27:05.946Z,101806.25
2023-02-14T04:29:32.640Z,101808.84
2023-02-14T04:31:59.459Z,101808.09
2023-02-14T04:34:26.326Z,101809.84
2023-02-14T04:36:53.095Z,101802.50
2023-02-14T04:39:19.859Z,101806.97
2023-02-14T04:41:46.614Z,101802.97
2023-02-14T04:44:13.398Z,101804.63
2023-02-14T04:46:40.254Z,101802.63
2023-02-14T04:49:07.092Z,101809.19
2023-02-14T04:51:33.814Z,101810.69
2023-02-14T04:54:00.561Z,101798.06
2023-02-14T04:56:27.353Z,101795.63
2023-02-14T04:58:55.089Z,101796.81
2023-02-14T05:01:22.145Z,101796.44
2023-02-14T05:04:03.787Z,101787.41
2023-02-14T05:06:30.610Z,101788.13
2023-02-14T05:08:57.421Z,101791.31
2023-02-14T05:11:24.475Z,101787.78
2023-02-14T05:13:51.282Z,101794.34
2023-02-14T05:16:18.125Z,101796.22
2023-02-14T05:18:45.308Z,101787.78
2023-02-14T05:21:12.182Z,101792.34
2023-02-14T05:23:39.554Z,101788.00
2023-02-14T05:26:06.868Z,101788.00
2023-02-14T05:28:33.705Z,101786.94
2023-02-14T05:31:01.111Z,101778.75
2023-02-14T05:33:28.310Z,101785.88
2023-02-14T05:35:55.138Z,101776.06
2023-02-14T05:38:21.912Z,101783.28
2023-02-14T05:40:48.603Z,101793.00
2023-02-14T05:43:15.424Z,101792.88
2023-02-14T05:45:42.221Z,101795.97
2023-02-14T05:48:09.054Z,101796.69
2023-02-14T05:50:35.820Z,101803.78
2023-02-14T05:53:02.853Z,101807.38
2023-02-14T05:55:29.675Z,101798.94
2023-02-14T05:57:56.830Z,101802.66
2023-02-14T06:00:24.938Z,101804.06
2023-02-14T06:02:51.880Z,101800.53
2023-02-14T06:05:20.207Z,101808.41
2023-02-14T06:07:52.690Z,101804.31
2023-02-14T06:10:21.356Z,101811.09
2023-02-14T06:12:53.547Z,101810.84
2023-02-14T06:15:20.472Z,101806.16
2023-02-14T06:17:57.708Z,101801.13
2023-02-14T06:20:25.294Z,101791.38
2023-02-14T06:22:52.816Z,101802.13
2023-02-14T06:25:20.459Z,101807.41
2023-02-14T06:27:49.259Z,101804.47
2023-02-14T06:30:17.702Z,101806.66
2023-02-14T06:32:44.724Z,101809.81
2023-02-14T06:35:11.605Z,101812.41
2023-02-14T06:37:42.319Z,101814.59
2023-02-14T06:40:10.232Z,101806.47
2023-02-14T06:42:37.528Z,101823.38
2023-02-14T06:45:05.043Z,101817.94
2023-02-14T06:47:34.619Z,101822.72
2023-02-14T06:50:01.816Z,101818.50
2023-02-14T06:52:31.812Z,101818.16
2023-02-14T06:54:58.698Z,101818.28
2023-02-14T06:57:25.641Z,101817.69
2023-02-14T06:59:52.385Z,101822.50
2023-02-14T07:02:19.612Z,101820.28
2023-02-14T07:04:46.528Z,101822.84
2023-02-14T07:07:13.382Z,101826.00
2023-02-14T07:09:40.153Z,101824.59
2023-02-14T07:12:07.263Z,101824.47
2023-02-14T07:14:34.058Z,101824.38
2023-02-14T07:17:01.023Z,101822.78
2023-02-14T07:19:27.847Z,101823.03
2023-02-14T07:21:54.686Z,101824.53
2023-02-14T07:24:21.464Z,101828.44
2023-02-14T07:26:48.203Z,101832.13
2023-02-14T07:29:15.010Z,101831.72
2023-02-14T07:31:41.894Z,101843.75
2023-02-14T07:34:08.688Z,101833.84
2023-02-14T07:36:37.186Z,101840.78
2023-02-14T07:39:04.007Z,101844.22
2023-02-14T07:41:30.837Z,101845.03
2023-02-14T07:43:57.627Z,101846.06
2023-02-14T07:46:24.561Z,101840.63
2023-02-14T07:48:52.112Z,101847.66
2023-02-14T07:51:19.006Z,101851.94
2023-02-14T07:53:45.996Z,101857.88
2023-02-14T07:56:12.811Z,101859.72
2023-02-14T07:58:39.728Z,101849.00
2023-02-14T08:01:06.643Z,101860.97
2023-02-14T08:03:33.491Z,101856.88
2023-02-14T08:06:00.361Z,101861.53
2023-02-14T08:08:30.140Z,101852.97
2023-02-14T08:10:57.957Z,101858.34
2023-02-14T08:13:25.060Z,101867.66
2023-02-14T08:16:11.809Z,101865.00
2023-02-14T08:18:41.469Z,101867.16
2023-02-14T08:21:10.214Z,101875.13
2023-02-14T08:23:37.904Z,101867.09
2023-02-14T08:26:05.255Z,101869.94
2023-02-14T08:28:33.235Z,101870.06
2023-02-14T08:31:00.899Z,101874.66
2023-02-14T08:33:28.261Z,101879.63
2023-02-14T08:35:55.161Z,101876.06
2023-02-14T08:38:22.286Z,101875.63
2023-02-14T08:40:49.212Z,101879.69
2023-02-14T08:43:16.274Z,101875.53
2023-02-14T08:45:43.258Z,101870.91
2023-02-14T08:48:12.219Z,101869.31
2023-02-14T08:50:40.042Z,101870.38
2023-02-14T08:53:08.521Z,101864.78
2023-02-14T08:55:36.054Z,101866.94
2023-02-14T08:58:04.000Z,101872.31
2023-02-14T09:00:31.642Z,101869.41
2023-02-14T09:02:58.816Z,101873.50
2023-02-14T09:05:26.615Z,101867.75
2023-02-14T09:07:56.573Z,101873.09
2023-02-14T09:10:24.533Z,101869.28
2023-02-14T09:12:51.866Z,101869.59
2023-02-14T09:15:18.857Z,101880.78
2023-02-14T09:17:45.782Z,101881.75
2023-02-14T09:20:14.923Z,101887.03
2023-02-14T09:22:41.834Z,101884.88
2023-02-14T09:25:08.950Z,101880.78
2023-02-14T09:27:36.095Z,101882.59
2023-02-14T09:30:03.212Z,101883.28
2023-02-14T09:32:30.537Z,101881.34
2023-02-14T09:34:57.344Z,101886.81
2023-02-14T09:37:42.792Z,101892.19
2023-02-14T09:40:13.076Z,101888.53
2023-02-14T09:43:02.078Z,101882.56
2023-02-14T09:45:32.262Z,101880.19
2023-02-14T09:48:34.369Z,101889.25
2023-02-14T09:51:08.827Z,101891.75
2023-02-14T09:53:49.457Z,101895.53
2023-02-14T09:56:42.856Z,101892.00
2023-02-14T10:00:00.242Z,101887.81
2023-02-14T10:02:37.957Z,101885.47
2023-02-14T10:05:15.617Z,101874.59
2023-02-14T10:08:03.986Z,101880.00
2023-02-14T10:10:42.272Z,101886.84
2023-02-14T10:13:37.023Z,101879.50
2023-02-14T10:16:12.449Z,101881.94
2023-02-14T10:18:57.964Z,101885.75
2023-02-14T10:21:47.116Z,101879.22
2023-02-14T10:24:20.070Z,101881.53
2023-02-14T10:26:49.412Z,101884.38
2023-02-14T10:29:19.120Z,101884.13
2023-02-14T10:31:57.752Z,101884.94
2023-02-14T10:34:50.475Z,101881.06
2023-02-14T10:37:37.611Z,101888.03
2023-02-14T10:40:20.600Z,101888.97
2023-02-14T10:42:50.470Z,101883.53
2023-02-14T10:45:26.250Z,101883.53
2023-02-14T10:48:29.906Z,101886.81
2023-02-14T10:51:03.978Z,101880.22
2023-02-14T10:53:48.827Z,101885.00
2023-02-14T10:56:21.802Z,101882.31
2023-02-14T10:58:51.289Z,101878.94
2023-02-14T11:01:19.502Z,101874.31
2023-02-14T11:04:08.768Z,101874.78
2023-02-14T11:06:35.599Z,101873.44
2023-02-14T11:09:03.266Z,101878.63
2023-02-14T11:11:30.054Z,101877.16
2023-02-14T11:13:56.961Z,101875.13
2023-02-14T11:16:37.138Z,101866.09
2023-02-14T11:19:19.202Z,101861.47
2023-02-14T11:21:47.588Z,101851.13
2023-02-14T11:24:18.440Z,101849.53
2023-02-14T11:26:50.125Z,101850.25
2023-02-14T11:29:26.443Z,101846.22
2023-02-14T11:31:53.592Z,101844.03
2023-02-14T11:34:29.294Z,101844.47
2023-02-14T11:36:56.149Z,101849.25
2023-02-14T11:39:29.881Z,101843.66
2023-02-14T11:41:59.964Z,101840.13
2023-02-14T11:44:29.887Z,101848.72
2023-02-14T11:47:15.833Z,101842.72
2023-02-14T11:50:06.120Z,101835.50
2023-02-14T11:52:37.217Z,101830.19
2023-02-14T11:55:04.918Z,101830.72
2023-02-14T11:57:37.875Z,101828.84
2023-02-14T12:00:17.433Z,101837.09
2023-02-14T12:02:49.821Z,101832.84
2023-02-14T12:05:30.527Z,101840.63
2023-02-14T12:08:08.175Z,101827.31
2023-02-14T12:10:40.267Z,101829.78
2023-02-14T12:13:10.081Z,101820.66
2023-02-14T12:15:56.989Z,101827.28
2023-02-14T12:18:47.165Z,101822.28
2023-02-14T12:21:35.282Z,101819.84
2023-02-14T12:24:37.047Z,101820.78
2023-02-14T12:27:07.320Z,101826.78
2023-02-14T12:29:34.231Z,101827.75
2023-02-14T12:32:12.018Z,101812.22
2023-02-14T12:34:38.848Z,101809.09
2023-02-14T12:37:19.071Z,101809.22
2023-02-14T12:39:47.856Z,101807.47
2023-02-14T12:42:46.392Z,101808.94
2023-02-14T12:45:50.962Z,101799.31
2023-02-14T12:48:37.226Z,101780.06
2023-02-14T12:51:04.036Z,101787.91
2023-02-14T12:53:49.464Z,101795.16
2023-02-14T12:56:34.005Z,101786.66
2023-02-14T12:59:52.701Z,101788.72
2023-02-14T13:02:28.804Z,101780.09
2023-02-14T13:05:22.277Z,101779.22
2023-02-14T13:08:00.544Z,101775.69
2023-02-14T13:11:08.550Z,101773.13
2023-02-14T13:13:56.229Z,101777.53
2023-02-14T13:16:50.416Z,101761.88
2023-02-14T13:19:46.456Z,101768.59
2023-02-14T13:22:20.756Z,101762.69
2023-02-14T13:24:51.255Z,101780.19
2023-02-14T13:27:30.265Z,101777.16
2023-02-14T13:30:02.717Z,101774.44
2023-02-14T13:32:40.173Z,101775.06
2023-02-14T13:35:08.471Z,101765.06
2023-02-14T13:37:37.149Z,101770.06
2023-02-14T13:40:16.638Z,101756.34
2023-02-14T13:42:52.369Z,101759.84
2023-02-14T13:45:40.227Z,101758.03
2023-02-14T13:48:29.276Z,101767.28
2023-02-14T13:51:02.207Z,101753.09
2023-02-14T13:53:47.189Z,101749.56
2023-02-14T13:56:16.960Z,101745.28
2023-02-14T13:58:52.405Z,101754.72
2023-02-14T14:01:50.657Z,101755.25
2023-02-14T14:04:30.365Z,101744.50
2023-02-14T14:07:03.630Z,101747.50
2023-02-14T14:09:42.711Z,101745.00
2023-02-14T14:12:27.626Z,101738.16
2023-02-14T14:15:06.573Z,101742.56
2023-02-14T14:17:38.057Z,101737.34
2023-02-14T14:20:16.849Z,101730.00
2023-02-14T14:22:58.597Z,101733.00
2023-02-14T14:25:42.848Z,101733.00
2023-02-14T14:28:18.396Z,101733.22
2023-02-14T14:30:45.963Z,101723.84
2023-02-14T14:33:25.500Z,101734.59
2023-02-14T14:36:02.389Z,101731.84
2023-02-14T14:38:30.713Z,101736.25
2023-02-14T14:40:58.109Z,101740.53
2023-02-14T14:43:36.803Z,101737.03
2023-02-14T14:46:07.731Z,101738.34
2023-02-14T14:49:05.883Z,101736.19
2023-02-14T14:51:35.732Z,101733.44
2023-02-14T14:54:07.061Z,101737.16
2023-02-14T14:56:36.926Z,101743.31
2023-02-14T14:59:22.584Z,101737.03
2023-02-14T15:01:54.572Z,101734.69
2023-02-14T15:04:35.331Z,101730.94
2023-02-14T15:07:20.120Z,101729.06
2023-02-14T15:09:47.143Z,101731.00
2023-02-14T15:12:38.375Z,101733.03
2023-02-14T15:15:09.202Z,101738.84
2023-02-14T15:17:37.862Z,101725.72
2023-02-14T15:20:18.902Z,101732.44
2023-02-14T15:22:48.339Z,101731.09
2023-02-14T15:25:25.916Z,101741.59
2023-02-14T15:27:53.235Z,101729.44
2023-02-14T15:30:20.180Z,101745.69
2023-02-14T15:32:51.114Z,101737.41
2023-02-14T15:35:22.876Z,101744.81
2023-02-14T15:37:52.065Z,101746.66
2023-02-14T15:40:22.694Z,101739.28
2023-02-14T15:42:56.101Z,101743.88
2023-02-14T15:45:23.682Z,101756.69
2023-02-14T15:47:57.128Z,101759.22
2023-02-14T15:50:45.819Z,101756.66
2023-02-14T15:53:21.447Z,101764.88
2023-02-14T15:55:50.558Z,101759.47
2023-02-14T15:58:24.200Z,101756.78
2023-02-14T16:00:53.427Z,101755.50
2023-02-14T16:03:26.971Z,101756.44
2023-02-14T16:05:57.613Z,101757.50
2023-02-14T16:08:34.946Z,101752.34
2023-02-14T16:11:27.430Z,101767.69
2023-02-14T16:13:54.382Z,101775.28
2023-02-14T16:16:21.797Z,101773.06
2023-02-14T16:18:54.979Z,101767.22
2023-02-14T16:21:27.645Z,101767.22
2023-02-14T16:24:10.919Z,101766.59
2023-02-14T16:26:45.979Z,101769.28
2023-02-14T16:29:17.494Z,101777.72
2023-02-14T16:34:38.080Z,101766.59
2023-02-14T16:37:18.432Z,101777.34
2023-02-14T16:39:45.504Z,101766.25
2023-02-14T16:42:21.375Z,101764.25
2023-02-14T16:44:48.620Z,101774.09
2023-02-14T16:47:18.341Z,101774.56
2023-02-14T16:49:45.463Z,101770.31
2023-02-14T16:52:23.887Z,101776.00
2023-02-14T16:54:51.197Z,101775.78
2023-02-14T16:57:37.413Z,101775.09
2023-02-14T17:00:06.588Z,101782.34
2023-02-14T17:02:35.028Z,101777.09
2023-02-14T17:05:02.117Z,101778.72
2023-02-14T17:07:32.954Z,101791.31
2023-02-14T17:10:11.998Z,101777.75
2023-02-14T17:12:44.137Z,101773.66
2023-02-14T17:15:15.553Z,101777.75
2023-02-14T17:17:43.213Z,101777.09
2023-02-14T17:20:10.607Z,101771.78
2023-02-14T17:22:37.886Z,101782.28
2023-02-14T17:25:06.067Z,101768.75
2023-02-14T17:27:32.933Z,101766.19
2023-02-14T17:29:59.834Z,101767.31
2023-02-14T17:32:26.733Z,101766.38
2023-02-14T17:34:53.941Z,101771.06
2023-02-14T17:37:20.779Z,101775.97
2023-02-14T17:39:47.724Z,101762.28
2023-02-14T17:42:14.595Z,101765.69
2023-02-14T17:44:41.458Z,101767.53
2023-02-14T17:47:08.465Z,101765.09
2023-02-14T17:49:35.523Z,101760.66
2023-02-14T17:52:02.454Z,101769.19
2023-02-14T17:54:29.205Z,101759.59
2023-02-14T17:56:55.948Z,101757.25
2023-02-14T17:59:22.809Z,101764.28
2023-02-14T18:01:49.688Z,101770.22
2023-02-14T18:04:16.559Z,101770.22
2023-02-14T18:06:43.450Z,101763.81
2023-02-14T18:09:10.268Z,101770.13
2023-02-14T18:11:40.645Z,101769.41
2023-02-14T18:14:07.428Z,101762.41
2023-02-14T18:16:34.412Z,101767.09
2023-02-14T18:19:05.540Z,101768.13
2023-02-14T18:21:40.012Z,101758.22
2023-02-14T18:24:07.653Z,101763.00
2023-02-14T18:26:36.147Z,101764.03
2023-02-14T18:29:06.684Z,101769.78
2023-02-14T18:31:35.697Z,101773.66
2023-02-14T18:34:02.838Z,101759.84
2023-02-14T18:36:31.828Z,101758.22
2023-02-14T18:38:59.220Z,101748.28
2023-02-14T18:41:27.108Z,101768.03
2023-02-14T18:43:54.139Z,101753.25
2023-02-14T18:46:24.234Z,101756.03
2023-02-14T18:48:51.773Z,101754.56
2023-02-14T18:51:24.120Z,101750.34
2023-02-14T18:53:54.928Z,101749.75
2023-02-14T18:56:24.160Z,101743.88
2023-02-14T18:58:56.291Z,101744.78
2023-02-14T19:01:29.209Z,101740.47
2023-02-14T19:03:56.836Z,101744.78
2023-02-14T19:06:23.783Z,101734.50
2023-02-14T19:08:51.194Z,101738.84
2023-02-14T19:11:21.559Z,101741.16
2023-02-14T19:13:53.463Z,101741.38
2023-02-14T19:16:24.041Z,101733.78
2023-02-14T19:18:53.390Z,101733.66
2023-02-14T19:21:26.182Z,101731.31
2023-02-14T19:23:56.136Z,101728.84
2023-02-14T19:26:32.877Z,101730.69
2023-02-14T19:29:03.445Z,101734.19
2023-02-14T19:31:36.376Z,101730.81
2023-02-14T19:34:04.705Z,101728.72
2023-02-14T19:36:32.166Z,101737.47
2023-02-14T19:38:58.989Z,101731.59
2023-02-14T19:41:29.769Z,101735.31
2023-02-14T19:43:58.099Z,101738.28
2023-02-14T19:46:25.703Z,101731.03
2023-02-14T19:48:52.544Z,101736.41
2023-02-14T19:51:28.959Z,101729.81
2023-02-14T19:53:57.176Z,101741.13
2023-02-14T19:56:27.366Z,101737.25
2023-02-14T19:58:56.124Z,101731.41
2023-02-14T20:01:42.103Z,101729.44
2023-02-14T20:04:13.820Z,101736.03
2023-02-14T20:06:41.354Z,101736.75
2023-02-14T20:09:09.337Z,101743.63
2023-02-14T20:11:50.860Z,101736.03
2023-02-14T20:14:22.697Z,101736.75
2023-02-14T20:16:50.982Z,101733.38
2023-02-14T20:19:21.020Z,101736.97
2023-02-14T20:21:49.996Z,101732.75
2023-02-14T20:24:22.406Z,101727.63
2023-02-14T20:26:50.660Z,101727.63
2023-02-14T20:29:18.441Z,101731.09
2023-02-14T20:31:53.764Z,101736.44
2023-02-14T20:34:21.433Z,101726.06
2023-02-14T20:36:55.981Z,101730.25
2023-02-14T20:39:27.592Z,101725.13
2023-02-14T20:41:54.419Z,101729.44
2023-02-14T20:44:21.825Z,101721.75
2023-02-14T20:46:53.938Z,101723.59
2023-02-14T20:49:21.957Z,101728.03
2023-02-14T20:51:50.543Z,101723.13
2023-02-14T20:54:18.751Z,101729.19
2023-02-14T20:56:46.154Z,101718.00
2023-02-14T20:59:13.713Z,101718.00
2023-02-14T21:01:40.952Z,101723.13
2023-02-14T21:04:07.762Z,101730.94
2023-02-14T21:06:39.823Z,101728.56
2023-02-14T21:09:06.998Z,101724.47
2023-02-14T21:11:33.772Z,101708.34
2023-02-14T21:14:02.080Z,101717.69
2023-02-14T21:16:30.287Z,101710.19
2023-02-14T21:18:59.304Z,101713.88
2023-02-14T21:21:37.655Z,101709.78
2023-02-14T21:24:10.842Z,101705.69
2023-02-14T21:26:38.294Z,101720.28
2023-02-14T21:29:06.066Z,101715.25
2023-02-14T21:31:33.635Z,101713.59
2023-02-14T21:34:02.051Z,101711.97
2023-02-14T21:36:35.632Z,101716.97
2023-02-14T21:39:03.815Z,101709.50
2023-02-14T21:41:31.507Z,101703.53
2023-02-14T21:43:59.723Z,101704.47
2023-02-14T21:46:32.260Z,101704.47
2023-02-14T21:49:19.743Z,101697.91
2023-02-14T21:51:47.761Z,101701.47
2023-02-14T21:54:15.447Z,101691.31
2023-02-14T21:56:42.716Z,101693.16
2023-02-14T21:59:10.010Z,101687.31
2023-02-14T22:01:38.869Z,101689.31
2023-02-14T22:04:09.184Z,101689.31
2023-02-14T22:06:38.797Z,101687.66
2023-02-14T22:09:07.005Z,101674.81
2023-02-14T22:11:34.388Z,101682.50
2023-02-14T22:14:01.230Z,101678.94
2023-02-14T22:16:28.529Z,101679.88
2023-02-14T22:18:55.538Z,101680.78
2023-02-14T22:21:24.977Z,101690.31
2023-02-14T22:23:53.390Z,101689.81
2023-02-14T22:26:29.222Z,101682.34
2023-02-14T22:28:59.225Z,101689.28
2023-02-14T22:31:30.744Z,101688.56
2023-02-14T22:33:57.822Z,101686.81
2023-02-14T22:36:25.239Z,101679.44
2023-02-14T22:38:52.121Z,101684.56
2023-02-14T22:41:21.313Z,101681.31
2023-02-14T22:43:48.429Z,101680.38
2023-02-14T22:46:23.567Z,101679.69
2023-02-14T22:48:51.384Z,101680.50
2023-02-14T22:51:22.522Z,101678.00
2023-02-14T22:53:51.038Z,101681.50
2023-02-14T22:56:21.347Z,101683.13
2023-02-14T22:58:56.794Z,101677.94
2023-02-14T23:01:24.524Z,101677.00
2023-02-14T23:03:55.130Z,101674.56
2023-02-14T23:06:22.694Z,101669.59
2023-02-14T23:08:49.604Z,101672.97
2023-02-14T23:11:22.846Z,101667.03
2023-02-14T23:14:08.709Z,101666.94
2023-02-14T23:16:54.395Z,101669.59
2023-02-14T23:19:45.464Z,101674.13
2023-02-14T23:22:15.611Z,101666.53
2023-02-14T23:24:42.897Z,101667.44
2023-02-14T23:27:10.225Z,101674.31
2023-02-14T23:29:37.956Z,101674.22
2023-02-14T23:32:06.541Z,101671.75
2023-02-14T23:34:35.780Z,101668.38
2023-02-14T23:37:03.269Z,101668.56
2023-02-14T23:39:35.844Z,101668.56
2023-02-14T23:42:08.065Z,101668.75
2023-02-14T23:44:36.282Z,101672.97
2023-02-14T23:47:06.254Z,101669.69
2023-02-14T23:49:34.529Z,101670.63
2023-02-14T23:52:02.252Z,101669.78
2023-02-14T23:54:29.109Z,101657.16
2023-02-14T23:56:57.493Z,101659.03
2023-02-14T23:59:24.653Z,101659.13
